Time;durP1;ratioP1;P1;durP2;ratioP2;P2;SDS_P1;SDS_P2;PMS_P1;PMS_P2;Temp;Humidity;BMP_temperature;BMP_pressure;BME280_temperature;BME280_humidity;BME280_pressure;Samples;Min_cycle;Max_cycle;Signal;HPM_P1;HPM_P2
2023/12/15 00:00:14;;;;;;;36.28;20.45;;;6.30;99.90;;;;;;4978099;28;20038;-82
2023/12/15 00:02:40;;;;;;;35.63;21.08;;;6.30;99.90;;;;;;4983125;28;20587;-82
2023/12/15 00:05:06;;;;;;;35.40;21.83;;;6.30;99.90;;;;;;4979246;28;20042;-82
2023/12/15 00:07:32;;;;;;;35.60;21.00;;;6.40;99.90;;;;;;4981089;28;20131;-82
2023/12/15 00:09:57;;;;;;;33.58;20.60;;;6.40;99.90;;;;;;4977490;28;20037;-82
2023/12/15 00:12:23;;;;;;;35.15;22.52;;;6.50;99.90;;;;;;4997653;28;20044;-82
2023/12/15 00:14:49;;;;;;;36.50;21.05;;;6.40;99.90;;;;;;4975803;28;20132;-82
2023/12/15 00:17:15;;;;;;;44.80;21.67;;;6.60;99.90;;;;;;4993209;28;20248;-82
2023/12/15 00:19:41;;;;;;;41.80;23.00;;;6.40;99.90;;;;;;4976186;28;20041;-82
2023/12/15 00:22:06;;;;;;;34.63;21.45;;;6.60;99.90;;;;;;4979506;28;20092;-82
2023/12/15 00:24:32;;;;;;;38.22;21.90;;;6.60;99.90;;;;;;4979780;28;20125;-82
2023/12/15 00:26:58;;;;;;;40.13;22.85;;;6.60;99.90;;;;;;4980533;28;20034;-82
2023/12/15 00:29:25;;;;;;;37.03;22.50;;;6.60;99.90;;;;;;4987345;28;20456;-82
2023/12/15 00:31:51;;;;;;;38.53;22.73;;;6.50;99.90;;;;;;4990536;28;20068;-82
2023/12/15 00:34:19;;;;;;;41.25;23.98;;;6.70;99.90;;;;;;4993627;28;20054;-82
2023/12/15 00:36:45;;;;;;;38.70;23.00;;;6.60;99.90;;;;;;4983871;28;20100;-82
2023/12/15 00:39:11;;;;;;;36.22;22.83;;;6.60;99.90;;;;;;4993723;28;20142;-82
2023/12/15 00:41:36;;;;;;;39.05;23.63;;;6.60;99.90;;;;;;4989729;28;20571;-82
2023/12/15 00:44:03;;;;;;;40.67;23.30;;;6.60;99.90;;;;;;4981185;28;20056;-82
2023/12/15 00:46:32;;;;;;;41.53;24.48;;;6.60;99.90;;;;;;4984166;28;20045;-82
2023/12/15 00:48:58;;;;;;;41.47;24.15;;;6.70;99.90;;;;;;4983619;28;20034;-83
2023/12/15 00:51:27;;;;;;;41.72;24.42;;;6.70;99.90;;;;;;4991821;28;20038;-82
2023/12/15 00:53:52;;;;;;;42.63;25.05;;;6.80;99.90;;;;;;4983345;28;20163;-89
2023/12/15 00:56:18;;;;;;;49.88;25.38;;;6.90;99.90;;;;;;4979808;28;20135;-89
2023/12/15 00:58:44;;;;;;;46.30;24.17;;;6.90;99.90;;;;;;4981759;28;20048;-89
2023/12/15 01:01:10;;;;;;;48.70;26.90;;;6.90;99.90;;;;;;4982439;28;20037;-89
2023/12/15 01:03:37;;;;;;;42.45;26.00;;;6.70;99.90;;;;;;4983197;28;20132;-89
2023/12/15 01:06:02;;;;;;;49.80;26.45;;;6.80;99.90;;;;;;4980219;28;20099;-89
2023/12/15 01:08:28;;;;;;;45.33;26.23;;;7.00;99.90;;;;;;5008999;28;20484;-89
2023/12/15 01:10:54;;;;;;;46.75;27.25;;;6.80;99.90;;;;;;4998418;28;20046;-88
2023/12/15 01:13:20;;;;;;;45.10;27.55;;;6.80;99.90;;;;;;4978200;28;20768;-88
2023/12/15 01:15:46;;;;;;;53.17;27.30;;;6.90;99.90;;;;;;4986901;28;20064;-89
2023/12/15 01:18:12;;;;;;;47.50;27.13;;;6.90;99.90;;;;;;4991604;28;20419;-89
2023/12/15 01:20:37;;;;;;;52.40;27.92;;;7.00;99.90;;;;;;4979295;28;20050;-88
2023/12/15 01:23:04;;;;;;;55.90;28.70;;;7.10;99.90;;;;;;4984760;28;20072;-89
2023/12/15 01:25:30;;;;;;;51.60;27.80;;;7.00;99.90;;;;;;4985848;28;20053;-89
2023/12/15 01:27:58;;;;;;;53.85;29.88;;;7.00;99.90;;;;;;4979292;28;20041;-90
2023/12/15 01:30:24;;;;;;;52.53;28.90;;;7.00;99.90;;;;;;5000137;28;20505;-88
2023/12/15 01:32:50;;;;;;;50.80;26.40;;;7.10;99.90;;;;;;4991948;28;20057;-87
2023/12/15 01:35:15;;;;;;;55.75;26.38;;;7.00;99.90;;;;;;4982117;28;20100;-89
2023/12/15 01:37:41;;;;;;;54.00;26.50;;;7.20;99.90;;;;;;4984631;28;20092;-88
2023/12/15 01:40:08;;;;;;;51.55;26.65;;;7.20;99.90;;;;;;4980027;28;20041;-89
2023/12/15 01:42:34;;;;;;;54.67;27.10;;;7.20;99.90;;;;;;4982989;28;20050;-89
2023/12/15 01:45:00;;;;;;;54.70;26.33;;;7.20;99.90;;;;;;4984014;28;20045;-89
2023/12/15 01:47:26;;;;;;;61.10;28.67;;;7.10;99.90;;;;;;4981402;28;20046;-82
2023/12/15 01:49:52;;;;;;;60.42;27.00;;;7.10;99.90;;;;;;4983171;28;20046;-82
2023/12/15 01:52:18;;;;;;;55.20;28.20;;;7.10;99.90;;;;;;4982532;28;20107;-82
2023/12/15 01:54:44;;;;;;;56.40;28.45;;;7.20;99.90;;;;;;4994179;28;20432;-82
2023/12/15 01:57:10;;;;;;;57.53;27.52;;;7.10;99.90;;;;;;4978614;28;20411;-82
2023/12/15 01:59:49;;;;;;;62.45;28.33;;;7.30;99.90;;;;;;4993941;28;20049;-82
2023/12/15 02:02:15;;;;;;;57.00;28.02;;;7.30;99.90;;;;;;4983004;28;20041;-82
2023/12/15 02:04:41;;;;;;;54.90;27.42;;;7.30;99.90;;;;;;4981204;28;20061;-81
2023/12/15 02:07:07;;;;;;;59.85;28.63;;;7.40;99.90;;;;;;4987808;28;20041;-82
2023/12/15 02:09:33;;;;;;;57.92;27.15;;;7.30;99.90;;;;;;5002606;28;20106;-82
2023/12/15 02:11:58;;;;;;;54.17;27.38;;;7.40;99.90;;;;;;4993499;28;20061;-82
2023/12/15 02:14:24;;;;;;;61.72;28.83;;;7.30;99.90;;;;;;4982481;28;20117;-81
2023/12/15 02:16:50;;;;;;;54.28;27.08;;;7.50;99.90;;;;;;4983514;28;20503;-82
2023/12/15 02:19:16;;;;;;;54.90;27.77;;;7.50;99.90;;;;;;4983357;28;20034;-82
2023/12/15 02:21:42;;;;;;;62.55;28.70;;;7.50;99.90;;;;;;5000712;28;20077;-82
2023/12/15 02:24:07;;;;;;;51.13;28.13;;;7.40;99.90;;;;;;4976995;28;20072;-82
2023/12/15 02:26:33;;;;;;;58.47;27.27;;;7.40;99.90;;;;;;4998679;28;20159;-81
2023/12/15 02:28:59;;;;;;;54.28;27.10;;;7.60;99.90;;;;;;4983412;28;20052;-82
2023/12/15 02:31:24;;;;;;;53.88;27.42;;;7.60;99.90;;;;;;5000260;28;20493;-82
2023/12/15 02:33:52;;;;;;;65.97;28.73;;;7.60;99.90;;;;;;4996099;28;20046;-82
2023/12/15 02:36:23;;;;;;;65.15;28.70;;;7.70;99.90;;;;;;4996156;28;20042;-82
2023/12/15 02:38:49;;;;;;;64.00;29.85;;;7.60;99.90;;;;;;4980981;28;20129;-82
2023/12/15 02:41:15;;;;;;;62.97;28.05;;;7.60;99.90;;;;;;4993486;28;20396;-82
2023/12/15 02:43:41;;;;;;;57.47;29.13;;;7.70;99.90;;;;;;4992082;28;20050;-82
2023/12/15 02:46:08;;;;;;;59.28;28.23;;;7.60;99.90;;;;;;4993076;28;20061;-82
2023/12/15 02:48:34;;;;;;;59.40;29.25;;;7.70;99.90;;;;;;4997422;28;20121;-83
2023/12/15 02:51:00;;;;;;;54.65;27.70;;;7.70;99.90;;;;;;4994092;28;20042;-82
2023/12/15 02:53:29;;;;;;;59.17;28.17;;;7.60;99.90;;;;;;4993974;28;20034;-82
2023/12/15 02:55:55;;;;;;;54.08;27.90;;;7.70;99.90;;;;;;4996213;28;20518;-82
2023/12/15 02:58:20;;;;;;;56.35;28.05;;;7.50;99.90;;;;;;4982043;28;20033;-81
2023/12/15 03:00:46;;;;;;;55.90;27.33;;;7.70;99.90;;;;;;4993995;28;20508;-82
2023/12/15 03:03:12;;;;;;;61.47;28.25;;;7.70;99.90;;;;;;4994715;28;20373;-82
2023/12/15 03:05:38;;;;;;;54.08;26.45;;;7.50;99.90;;;;;;4983612;28;20153;-82
2023/12/15 03:08:07;;;;;;;59.25;28.60;;;7.70;99.90;;;;;;4977580;28;20381;-82
2023/12/15 03:10:33;;;;;;;57.60;27.70;;;7.70;99.90;;;;;;4999644;28;20132;-82
2023/12/15 03:12:59;;;;;;;55.72;27.77;;;7.60;99.90;;;;;;4984113;28;20116;-82
2023/12/15 03:15:26;;;;;;;52.50;27.65;;;7.60;99.90;;;;;;4980046;28;20073;-82
2023/12/15 03:17:51;;;;;;;56.03;27.35;;;7.50;99.90;;;;;;4999573;28;20043;-82
2023/12/15 03:20:17;;;;;;;56.72;28.00;;;7.40;99.90;;;;;;4976098;28;20044;-82
2023/12/15 03:22:43;;;;;;;56.85;27.90;;;7.50;99.90;;;;;;4997906;28;20046;-82
2023/12/15 03:25:09;;;;;;;55.53;28.17;;;7.40;99.90;;;;;;4979908;28;20073;-82
2023/12/15 03:27:35;;;;;;;54.78;29.10;;;7.40;99.90;;;;;;4995478;28;20084;-83
2023/12/15 03:30:00;;;;;;;58.85;27.48;;;7.40;99.90;;;;;;4981597;28;20089;-82
2023/12/15 03:32:26;;;;;;;59.58;27.17;;;7.20;99.90;;;;;;4991986;28;20450;-82
2023/12/15 03:34:52;;;;;;;57.40;27.95;;;7.30;99.90;;;;;;4979296;28;20094;-82
2023/12/15 03:37:17;;;;;;;60.83;27.10;;;7.30;99.90;;;;;;4990216;28;20117;-82
2023/12/15 03:39:43;;;;;;;54.45;28.88;;;7.00;99.90;;;;;;5001119;28;20286;-82
2023/12/15 03:42:11;;;;;;;59.63;28.25;;;7.10;99.90;;;;;;4977727;28;20041;-82
2023/12/15 03:44:39;;;;;;;56.10;29.25;;;7.20;99.90;;;;;;4982176;28;20042;-82
2023/12/15 03:47:06;;;;;;;63.42;28.50;;;7.20;99.90;;;;;;5013357;28;20102;-82
2023/12/15 03:49:33;;;;;;;66.40;30.05;;;7.10;99.90;;;;;;4991592;28;20359;-83
2023/12/15 03:51:59;;;;;;;68.30;32.00;;;7.20;99.90;;;;;;4994574;28;20117;-82
2023/12/15 03:54:25;;;;;;;67.20;33.47;;;7.20;99.90;;;;;;4981893;28;20099;-82
2023/12/15 03:56:57;;;;;;;79.47;33.10;;;7.10;99.90;;;;;;4983811;28;20532;-82
2023/12/15 03:59:24;;;;;;;78.82;34.00;;;7.10;99.90;;;;;;5008051;28;20082;-82
2023/12/15 04:01:50;;;;;;;74.55;34.13;;;6.90;99.90;;;;;;4995161;28;20097;-82
2023/12/15 04:04:17;;;;;;;71.63;31.15;;;7.00;99.90;;;;;;4979914;28;20069;-82
2023/12/15 04:06:42;;;;;;;62.50;30.95;;;6.90;99.90;;;;;;4979707;28;20152;-82
2023/12/15 04:09:11;;;;;;;59.75;30.60;;;6.80;99.90;;;;;;4979853;28;20081;-82
2023/12/15 04:11:37;;;;;;;80.43;32.95;;;7.00;99.90;;;;;;4981192;28;20408;-82
2023/12/15 04:14:04;;;;;;;79.70;32.47;;;6.90;99.90;;;;;;4978760;28;20429;-82
2023/12/15 04:16:30;;;;;;;72.72;32.17;;;6.90;99.90;;;;;;5000791;28;20116;-82
2023/12/15 04:18:58;;;;;;;72.22;31.42;;;6.80;99.90;;;;;;4994815;28;20033;-82
2023/12/15 04:21:24;;;;;;;74.38;32.08;;;7.00;99.90;;;;;;4989450;28;20046;-82
2023/12/15 04:23:50;;;;;;;83.63;33.72;;;6.90;99.90;;;;;;4998572;28;20048;-82
2023/12/15 04:26:16;;;;;;;67.95;30.55;;;6.90;99.90;;;;;;4981760;28;20046;-81
2023/12/15 04:28:45;;;;;;;72.32;31.30;;;7.10;99.90;;;;;;4981052;28;20042;-82
2023/12/15 04:31:15;;;;;;;70.68;30.50;;;7.00;99.90;;;;;;4984184;28;20456;-82
2023/12/15 04:33:41;;;;;;;74.68;30.67;;;7.10;99.90;;;;;;4982187;28;20038;-82
2023/12/15 04:36:08;;;;;;;68.45;29.85;;;7.10;99.90;;;;;;4996319;28;20092;-82
2023/12/15 04:38:34;;;;;;;78.07;29.98;;;7.10;99.90;;;;;;4974840;28;20393;-82
2023/12/15 04:41:00;;;;;;;62.10;28.80;;;7.00;99.90;;;;;;4978446;28;20501;-82
2023/12/15 04:43:26;;;;;;;62.58;30.08;;;6.90;99.90;;;;;;4992980;28;20065;-82
2023/12/15 04:45:51;;;;;;;63.55;28.35;;;6.90;99.90;;;;;;4973747;28;20049;-82
2023/12/15 04:48:17;;;;;;;67.07;29.85;;;6.90;99.90;;;;;;4990663;28;20046;-82
2023/12/15 04:50:43;;;;;;;63.88;29.38;;;7.00;99.90;;;;;;4989034;28;20046;-82
2023/12/15 04:53:08;;;;;;;61.05;28.90;;;7.00;99.90;;;;;;4993420;28;20045;-82
2023/12/15 04:55:34;;;;;;;62.80;27.63;;;6.90;99.90;;;;;;4992965;28;20041;-82
2023/12/15 04:58:00;;;;;;;57.25;27.23;;;6.90;99.90;;;;;;4991074;28;20045;-82
2023/12/15 05:00:26;;;;;;;59.25;27.27;;;6.90;99.90;;;;;;4980621;28;20125;-82
2023/12/15 05:02:52;;;;;;;61.05;26.65;;;7.10;99.90;;;;;;4996209;28;20553;-82
2023/12/15 05:05:18;;;;;;;60.88;26.00;;;7.00;99.90;;;;;;4981556;28;20126;-82
2023/12/15 05:07:44;;;;;;;48.83;24.27;;;6.90;99.90;;;;;;4996144;28;20160;-82
2023/12/15 05:10:10;;;;;;;52.40;26.02;;;7.00;99.90;;;;;;4988232;28;20052;-82
2023/12/15 05:12:36;;;;;;;54.10;25.63;;;7.10;99.90;;;;;;4980809;28;20262;-82
2023/12/15 05:15:06;;;;;;;55.30;25.90;;;7.20;99.90;;;;;;4979076;28;20038;-82
2023/12/15 05:17:32;;;;;;;55.75;26.25;;;7.20;99.90;;;;;;5008156;28;20397;-82
2023/12/15 05:19:58;;;;;;;48.17;24.48;;;7.10;99.90;;;;;;4981785;28;20034;-82
2023/12/15 05:22:24;;;;;;;58.42;26.15;;;7.20;99.90;;;;;;4995243;28;20038;-82
2023/12/15 05:24:51;;;;;;;51.08;24.98;;;7.20;99.90;;;;;;4980138;28;20084;-82
2023/12/15 05:27:17;;;;;;;56.70;25.90;;;7.10;99.90;;;;;;4994163;28;20034;-82
2023/12/15 05:29:46;;;;;;;50.25;23.73;;;7.00;99.90;;;;;;4989838;28;20129;-82
2023/12/15 05:32:13;;;;;;;50.33;24.38;;;6.90;99.90;;;;;;4983548;28;20092;-82
2023/12/15 05:34:38;;;;;;;59.83;23.55;;;7.00;99.90;;;;;;4992938;28;20038;-82
2023/12/15 05:37:04;;;;;;;47.65;23.45;;;6.80;99.90;;;;;;4994732;28;20422;-82
2023/12/15 05:39:30;;;;;;;48.63;22.15;;;6.70;99.90;;;;;;4994997;28;20130;-82
2023/12/15 05:41:56;;;;;;;48.67;23.00;;;6.70;99.90;;;;;;4996557;28;20046;-82
2023/12/15 05:44:21;;;;;;;55.25;23.90;;;6.80;99.90;;;;;;4995562;28;20037;-82
2023/12/15 05:46:48;;;;;;;53.22;23.92;;;6.60;99.90;;;;;;4983616;28;20129;-82
2023/12/15 05:49:14;;;;;;;50.67;24.25;;;6.50;99.90;;;;;;4994039;28;20052;-82
2023/12/15 05:51:45;;;;;;;51.80;24.60;;;6.60;99.90;;;;;;4986711;28;20037;-82
2023/12/15 05:54:11;;;;;;;52.20;24.23;;;6.60;99.90;;;;;;4995403;28;20140;-82
2023/12/15 05:56:37;;;;;;;52.97;24.88;;;6.40;99.90;;;;;;4999451;28;20125;-82
2023/12/15 05:59:02;;;;;;;61.58;23.42;;;6.50;99.90;;;;;;4984793;28;20123;-82
2023/12/15 06:01:28;;;;;;;53.08;24.30;;;6.30;99.90;;;;;;5001557;28;20042;-82
2023/12/15 06:03:54;;;;;;;51.72;24.50;;;6.30;99.90;;;;;;4984622;28;20042;-83
2023/12/15 06:06:19;;;;;;;51.10;24.80;;;6.50;99.90;;;;;;4997052;28;20481;-82
2023/12/15 06:08:45;;;;;;;54.40;24.02;;;6.40;99.90;;;;;;4996988;28;20473;-82
2023/12/15 06:11:11;;;;;;;57.22;24.15;;;6.40;99.90;;;;;;4983236;28;20057;-82
2023/12/15 06:13:39;;;;;;;68.25;25.17;;;6.60;99.90;;;;;;4997128;28;20085;-82
2023/12/15 06:16:05;;;;;;;53.83;25.95;;;6.40;99.90;;;;;;4986565;28;20030;-82
2023/12/15 06:18:31;;;;;;;68.72;25.48;;;6.50;99.90;;;;;;4986426;28;20492;-82
2023/12/15 06:20:56;;;;;;;58.13;23.10;;;6.40;99.90;;;;;;4994600;28;20522;-82
2023/12/15 06:23:22;;;;;;;55.45;23.50;;;6.50;99.90;;;;;;4999335;28;20056;-82
2023/12/15 06:25:48;;;;;;;58.30;23.27;;;6.60;99.90;;;;;;4981334;28;20078;-82
2023/12/15 06:28:16;;;;;;;59.15;24.05;;;6.70;99.90;;;;;;4983008;28;20141;-82
2023/12/15 06:30:42;;;;;;;50.40;23.20;;;6.50;99.90;;;;;;4982706;28;20144;-82
2023/12/15 06:33:08;;;;;;;45.40;22.55;;;6.60;99.90;;;;;;4985629;28;20034;-82
2023/12/15 06:35:34;;;;;;;54.75;22.38;;;6.40;99.90;;;;;;4997037;28;20104;-82
2023/12/15 06:38:00;;;;;;;49.65;22.15;;;6.40;99.90;;;;;;4994137;28;20048;-82
2023/12/15 06:40:25;;;;;;;51.50;23.55;;;6.40;99.90;;;;;;4985074;28;20048;-82
2023/12/15 06:42:51;;;;;;;61.08;24.63;;;6.50;99.90;;;;;;4994800;28;20046;-82
2023/12/15 06:45:17;;;;;;;61.80;26.38;;;6.40;99.90;;;;;;5000250;28;20041;-82
2023/12/15 06:47:43;;;;;;;59.25;25.05;;;6.30;99.90;;;;;;5001854;28;20089;-82
2023/12/15 06:50:09;;;;;;;74.82;26.85;;;6.30;99.90;;;;;;4980945;28;20063;-82
2023/12/15 06:52:35;;;;;;;54.78;23.50;;;6.20;99.90;;;;;;5015924;28;20289;-82
2023/12/15 06:55:02;;;;;;;54.67;22.38;;;6.30;99.90;;;;;;4982596;28;20049;-82
2023/12/15 06:57:28;;;;;;;59.53;24.05;;;6.10;99.90;;;;;;4994739;28;20038;-82
2023/12/15 06:59:54;;;;;;;53.85;22.95;;;6.20;99.90;;;;;;4973492;28;20042;-82
2023/12/15 07:02:19;;;;;;;63.20;23.80;;;6.10;99.90;;;;;;4980738;28;20045;-82
2023/12/15 07:04:45;;;;;;;56.75;23.60;;;6.10;99.90;;;;;;4981869;28;20285;-82
2023/12/15 07:07:11;;;;;;;60.30;23.33;;;6.20;99.90;;;;;;4979111;28;20043;-82
2023/12/15 07:09:37;;;;;;;48.58;22.65;;;6.20;99.90;;;;;;4989916;28;20100;-89
2023/12/15 07:12:03;;;;;;;53.50;23.50;;;6.20;99.90;;;;;;4981756;28;20045;-89
2023/12/15 07:14:32;;;;;;;63.08;24.90;;;6.10;99.90;;;;;;4977669;28;20042;-89
2023/12/15 07:16:58;;;;;;;65.82;24.10;;;6.00;99.90;;;;;;5002682;28;20037;-90
2023/12/15 07:19:23;;;;;;;60.53;24.33;;;6.20;99.90;;;;;;4983189;28;20029;-88
2023/12/15 07:21:49;;;;;;;64.05;23.35;;;6.00;99.90;;;;;;4986298;28;20034;-89
2023/12/15 07:24:15;;;;;;;64.32;24.70;;;6.00;99.90;;;;;;4992440;28;20397;-89
2023/12/15 07:26:40;;;;;;;64.47;24.17;;;5.90;99.90;;;;;;4994465;28;20189;-89
2023/12/15 07:29:06;;;;;;;64.90;24.52;;;6.00;99.90;;;;;;4983648;28;20045;-88
2023/12/15 07:31:32;;;;;;;62.47;23.50;;;6.10;99.90;;;;;;4983228;28;20078;-90
2023/12/15 07:33:58;;;;;;;62.10;22.92;;;6.10;99.90;;;;;;4979527;28;20069;-89
2023/12/15 07:36:23;;;;;;;65.72;23.70;;;5.90;99.90;;;;;;4978689;28;20133;-89
2023/12/15 07:38:49;;;;;;;55.20;21.10;;;5.90;99.90;;;;;;4989342;28;20042;-89
2023/12/15 07:41:15;;;;;;;67.05;22.48;;;6.00;99.90;;;;;;4976870;28;20360;-90
2023/12/15 07:43:41;;;;;;;59.95;22.85;;;6.00;99.90;;;;;;4989818;28;20068;-89
2023/12/15 07:46:19;;;;;;;54.65;21.67;;;6.00;99.90;;;;;;4984188;28;20041;-90
2023/12/15 07:48:45;;;;;;;63.22;22.27;;;6.10;99.90;;;;;;4997165;28;20446;-89
2023/12/15 07:51:19;;;;;;;56.90;22.15;;;6.10;99.90;;;;;;4981061;28;20076;-89
2023/12/15 07:53:49;;;;;;;46.30;20.47;;;6.00;99.90;;;;;;5006846;28;20048;-89
2023/12/15 07:56:25;;;;;;;51.42;20.65;;;6.00;99.90;;;;;;4997092;28;20149;-89
2023/12/15 07:58:55;;;;;;;53.17;20.30;;;6.20;99.90;;;;;;4996601;28;20180;-89
2023/12/15 08:01:23;;;;;;;48.30;18.15;;;6.10;99.90;;;;;;4997195;28;20042;-89
2023/12/15 08:03:52;;;;;;;46.58;19.88;;;6.20;99.90;;;;;;4977965;28;20053;-89
2023/12/15 08:06:19;;;;;;;45.00;18.52;;;6.30;99.90;;;;;;4995847;28;20048;-87
2023/12/15 08:08:46;;;;;;;55.10;19.52;;;6.30;99.90;;;;;;4975059;28;20479;-90
2023/12/15 08:11:13;;;;;;;60.45;20.65;;;6.50;99.90;;;;;;4985746;28;20731;-89
2023/12/15 08:13:40;;;;;;;47.17;18.02;;;6.40;99.90;;;;;;4995627;28;20125;-90
2023/12/15 08:16:07;;;;;;;43.67;17.10;;;6.50;99.90;;;;;;4986062;28;20042;-90
2023/12/15 08:18:33;;;;;;;49.53;17.33;;;6.50;99.90;;;;;;4990884;28;20101;-89
2023/12/15 08:20:59;;;;;;;47.75;17.27;;;6.40;99.90;;;;;;4984490;28;20049;-89
2023/12/15 08:23:26;;;;;;;46.58;17.33;;;6.70;99.90;;;;;;4983539;28;20041;-90
2023/12/15 08:25:52;;;;;;;42.95;16.90;;;6.60;99.90;;;;;;4983603;28;20037;-89
2023/12/15 08:28:19;;;;;;;47.03;17.30;;;6.70;99.90;;;;;;4994481;28;20490;-89
2023/12/15 08:30:46;;;;;;;42.17;16.52;;;6.70;99.90;;;;;;4982927;28;20050;-90
2023/12/15 08:33:12;;;;;;;42.78;17.13;;;6.90;99.90;;;;;;4983866;28;20100;-89
2023/12/15 08:35:37;;;;;;;47.33;16.95;;;6.80;99.90;;;;;;4984791;28;20069;-89
2023/12/15 08:38:03;;;;;;;40.30;15.10;;;6.90;99.90;;;;;;4985251;28;20489;-90
2023/12/15 08:40:29;;;;;;;40.58;15.88;;;7.00;99.90;;;;;;4980273;28;20037;-89
2023/12/15 08:42:55;;;;;;;40.03;14.68;;;7.10;99.90;;;;;;4992318;28;20041;-89
2023/12/15 08:45:21;;;;;;;46.35;14.68;;;7.10;99.90;;;;;;4982581;28;20041;-89
2023/12/15 08:47:47;;;;;;;39.40;13.55;;;7.20;99.90;;;;;;4982468;28;20458;-81
2023/12/15 08:50:13;;;;;;;46.05;14.82;;;7.20;99.90;;;;;;4979274;28;20050;-82
2023/12/15 08:52:40;;;;;;;40.97;14.65;;;7.10;99.90;;;;;;4978935;28;20034;-82
2023/12/15 08:55:06;;;;;;;37.67;14.10;;;7.20;99.90;;;;;;4981291;28;20029;-82
2023/12/15 08:57:32;;;;;;;37.58;13.65;;;7.10;99.90;;;;;;4979119;28;20029;-82
2023/12/15 08:59:58;;;;;;;36.58;12.95;;;7.20;99.90;;;;;;4989302;28;20038;-82
2023/12/15 09:02:25;;;;;;;38.67;11.82;;;7.20;99.90;;;;;;4990703;28;20161;-82
2023/12/15 09:04:51;;;;;;;38.80;11.68;;;7.30;99.90;;;;;;4976713;28;20038;-82
2023/12/15 09:07:17;;;;;;;28.73;10.52;;;7.30;99.90;;;;;;4977529;28;20474;-82
2023/12/15 09:09:43;;;;;;;32.70;11.23;;;7.40;99.90;;;;;;4992365;28;20046;-82
2023/12/15 09:12:10;;;;;;;30.55;10.82;;;7.40;99.90;;;;;;4994669;28;20045;-82
2023/12/15 09:14:36;;;;;;;31.23;10.68;;;7.30;99.90;;;;;;4990557;28;20054;-82
2023/12/15 09:17:03;;;;;;;33.30;10.68;;;7.40;99.90;;;;;;4993058;28;20215;-82
2023/12/15 09:19:31;;;;;;;39.58;10.65;;;7.50;99.90;;;;;;4999948;28;20443;-82
2023/12/15 09:21:57;;;;;;;30.45;9.90;;;7.40;99.90;;;;;;4999412;28;20425;-82
2023/12/15 09:24:23;;;;;;;32.30;9.40;;;7.50;99.90;;;;;;4982136;28;20038;-82
2023/12/15 09:26:48;;;;;;;36.45;10.15;;;7.60;99.90;;;;;;4985079;28;20520;-82
2023/12/15 09:29:15;;;;;;;36.08;9.43;;;7.60;99.90;;;;;;4992763;28;20046;-82
2023/12/15 09:31:41;;;;;;;30.17;9.02;;;7.70;99.90;;;;;;4979912;28;20072;-82
2023/12/15 09:34:07;;;;;;;33.83;9.88;;;7.70;99.90;;;;;;4995831;28;20116;-82
2023/12/15 09:36:34;;;;;;;34.10;9.50;;;7.70;99.90;;;;;;4995942;28;20049;-82
2023/12/15 09:39:00;;;;;;;31.92;9.43;;;7.80;99.90;;;;;;5013299;28;20557;-82
2023/12/15 09:41:27;;;;;;;34.20;9.45;;;8.00;99.90;;;;;;4984288;28;20042;-82
2023/12/15 09:43:53;;;;;;;28.00;9.07;;;7.80;99.90;;;;;;4991279;28;20078;-83
2023/12/15 09:46:20;;;;;;;31.77;9.73;;;8.10;99.90;;;;;;4980121;28;20045;-82
2023/12/15 09:48:48;;;;;;;33.67;8.77;;;8.10;99.90;;;;;;4998050;28;20419;-82
2023/12/15 09:51:24;;;;;;;38.45;9.25;;;8.10;99.90;;;;;;4995899;28;20423;-82
2023/12/15 09:53:51;;;;;;;25.60;8.60;;;8.20;99.90;;;;;;4972425;28;20043;-82
2023/12/15 09:56:18;;;;;;;32.45;9.00;;;8.30;99.90;;;;;;4978876;28;20410;-82
2023/12/15 09:58:44;;;;;;;30.38;8.75;;;8.20;99.90;;;;;;4984098;28;20137;-82
2023/12/15 10:01:11;;;;;;;27.63;8.60;;;8.40;99.90;;;;;;4994966;28;20042;-82
2023/12/15 10:03:37;;;;;;;31.77;8.65;;;8.20;99.90;;;;;;4984297;28;20242;-82
2023/12/15 10:06:03;;;;;;;29.38;7.95;;;8.40;99.90;;;;;;4996282;28;20133;-82
2023/12/15 10:08:45;;;;;;;30.40;7.72;;;8.40;99.90;;;;;;4983395;28;20492;-82
2023/12/15 10:11:11;;;;;;;46.00;9.07;;;8.50;99.90;;;;;;4980999;28;20292;-82
2023/12/15 10:13:40;;;;;;;35.13;6.97;;;8.50;99.90;;;;;;4997194;28;20042;-82
2023/12/15 10:16:08;;;;;;;31.52;8.38;;;8.40;99.90;;;;;;4977996;28;20121;-82
2023/12/15 10:18:33;;;;;;;34.40;8.35;;;8.50;99.90;;;;;;4983033;28;20385;-82
2023/12/15 10:20:59;;;;;;;36.65;9.10;;;8.70;99.90;;;;;;4991916;28;20041;-82
2023/12/15 10:23:26;;;;;;;37.72;8.75;;;8.70;99.90;;;;;;4990968;28;20042;-82
2023/12/15 10:25:53;;;;;;;29.73;7.53;;;8.70;99.90;;;;;;4982606;28;20041;-82
2023/12/15 10:28:22;;;;;;;30.40;8.02;;;8.80;99.90;;;;;;4989828;28;20045;-82
2023/12/15 10:30:51;;;;;;;26.48;7.78;;;8.70;99.90;;;;;;4977563;28;20493;-82
2023/12/15 10:33:18;;;;;;;28.90;7.10;;;8.70;99.90;;;;;;4993802;28;20061;-82
2023/12/15 10:35:48;;;;;;;24.10;7.55;;;8.80;99.90;;;;;;4994278;28;20042;-82
2023/12/15 10:38:17;;;;;;;33.42;8.50;;;8.70;99.90;;;;;;4993340;28;20256;-82
2023/12/15 10:40:43;;;;;;;29.23;8.30;;;8.60;99.90;;;;;;4980292;28;20072;-82
2023/12/15 10:43:10;;;;;;;28.55;7.28;;;8.70;99.90;;;;;;4982189;28;20438;-81
2023/12/15 10:45:37;;;;;;;31.63;8.20;;;8.70;99.90;;;;;;4974085;28;20145;-82
2023/12/15 10:48:03;;;;;;;30.20;7.57;;;8.80;99.90;;;;;;4980657;28;20417;-82
2023/12/15 10:50:30;;;;;;;25.10;7.10;;;8.80;99.90;;;;;;4979917;28;20453;-82
2023/12/15 10:52:57;;;;;;;29.50;7.10;;;8.70;99.90;;;;;;4976116;28;20121;-82
2023/12/15 10:55:26;;;;;;;25.25;6.65;;;8.80;99.90;;;;;;4993262;28;20066;-81
2023/12/15 10:57:52;;;;;;;29.63;7.40;;;8.80;99.90;;;;;;4997285;28;20042;-82
2023/12/15 11:00:19;;;;;;;28.95;7.20;;;8.90;99.90;;;;;;4991747;28;20085;-82
2023/12/15 11:02:46;;;;;;;33.40;6.53;;;9.10;99.90;;;;;;4993800;28;20409;-82
2023/12/15 11:05:12;;;;;;;25.23;6.32;;;8.90;99.90;;;;;;4982682;28;20034;-82
2023/12/15 11:07:40;;;;;;;32.28;7.25;;;9.10;99.90;;;;;;4996987;28;20628;-82
2023/12/15 11:10:09;;;;;;;29.05;7.10;;;9.00;99.90;;;;;;4983532;28;20042;-82
2023/12/15 11:12:42;;;;;;;30.58;7.03;;;9.10;99.90;;;;;;4981897;28;20050;-82
2023/12/15 11:15:18;;;;;;;28.67;7.20;;;9.00;99.90;;;;;;4983104;28;20038;-83
2023/12/15 11:17:48;;;;;;;26.17;6.40;;;9.10;99.90;;;;;;4979964;28;20796;-82
2023/12/15 11:20:19;;;;;;;27.23;6.57;;;9.10;99.90;;;;;;4998419;28;20046;-82
2023/12/15 11:22:54;;;;;;;28.05;7.30;;;9.20;99.90;;;;;;4989029;28;20034;-82
2023/12/15 11:25:21;;;;;;;33.83;7.07;;;9.10;99.90;;;;;;4995831;28;20413;-82
2023/12/15 11:28:03;;;;;;;30.00;6.50;;;9.20;99.90;;;;;;4981635;28;20084;-82
2023/12/15 11:30:30;;;;;;;23.95;6.68;;;9.20;99.90;;;;;;4975184;28;20156;-82
2023/12/15 11:32:56;;;;;;;32.03;6.40;;;9.20;99.90;;;;;;4991509;28;20050;-82
2023/12/15 11:35:34;;;;;;;24.58;6.38;;;9.30;99.90;;;;;;4980804;28;20111;-82
2023/12/15 11:38:02;;;;;;;32.47;6.68;;;9.30;99.90;;;;;;4983074;28;20500;-82
2023/12/15 11:40:30;;;;;;;30.70;6.45;;;9.20;99.90;;;;;;4988703;28;20144;-83
2023/12/15 11:42:59;;;;;;;25.75;6.38;;;9.30;99.90;;;;;;4993664;28;20041;-82
2023/12/15 11:45:26;;;;;;;31.70;5.93;;;9.30;99.90;;;;;;4974176;28;20464;-82
2023/12/15 11:47:53;;;;;;;25.67;5.80;;;9.40;99.90;;;;;;4997106;28;20045;-82
2023/12/15 11:50:21;;;;;;;20.48;6.05;;;9.40;99.90;;;;;;4983225;28;20305;-82
2023/12/15 11:52:47;;;;;;;31.85;6.97;;;9.40;99.90;;;;;;4991381;28;20050;-83
2023/12/15 11:55:13;;;;;;;30.00;5.93;;;9.40;99.90;;;;;;4982464;28;20050;-82
2023/12/15 11:57:39;;;;;;;29.50;6.25;;;9.50;99.90;;;;;;4992653;28;20117;-82
2023/12/15 12:00:05;;;;;;;27.25;6.10;;;9.50;99.90;;;;;;4973972;28;20440;-82
2023/12/15 12:02:31;;;;;;;23.25;5.47;;;9.60;99.90;;;;;;4976024;28;20045;-82
2023/12/15 12:04:58;;;;;;;30.13;6.05;;;9.60;99.90;;;;;;4981253;28;20061;-82
2023/12/15 12:07:23;;;;;;;24.50;5.60;;;9.60;99.90;;;;;;4996285;28;20142;-82
2023/12/15 12:09:49;;;;;;;20.80;5.65;;;9.60;99.90;;;;;;4990895;28;20140;-82
2023/12/15 12:12:15;;;;;;;24.02;5.78;;;9.70;99.90;;;;;;4992939;28;20049;-82
2023/12/15 12:14:42;;;;;;;27.00;6.18;;;9.80;99.90;;;;;;4988335;28;20066;-82
2023/12/15 12:17:10;;;;;;;35.17;6.97;;;9.80;99.90;;;;;;4989568;28;20041;-82
2023/12/15 12:19:43;;;;;;;24.83;6.47;;;9.70;99.90;;;;;;4979406;28;20045;-82
2023/12/15 12:22:10;;;;;;;23.35;5.88;;;9.80;99.90;;;;;;4993165;28;20042;-82
2023/12/15 12:24:37;;;;;;;24.35;5.97;;;9.70;99.90;;;;;;4986845;28;20050;-82
2023/12/15 12:27:05;;;;;;;34.33;6.32;;;9.60;99.90;;;;;;4998194;28;20584;-82
2023/12/15 12:29:31;;;;;;;33.45;6.22;;;9.50;99.90;;;;;;4970861;28;20700;-82
2023/12/15 12:31:57;;;;;;;29.20;6.68;;;9.60;99.90;;;;;;4978181;28;20089;-89
2023/12/15 12:34:23;;;;;;;31.92;6.20;;;9.50;99.90;;;;;;4983012;28;20030;-89